createdAt,value
2022-09-15T00:00:42.374Z,15.06999969
2022-09-15T00:02:37.761Z,15.09000015
2022-09-15T00:03:39.757Z,15.06999969
2022-09-15T00:04:34.002Z,15.06999969
2022-09-15T00:05:35.902Z,15.09000015
2022-09-15T00:06:32.373Z,15.09000015
2022-09-15T00:08:28.981Z,15.05000019
2022-09-15T00:09:26.142Z,15.03999996
2022-09-15T00:10:34.085Z,15.02999973
2022-09-15T00:12:20.608Z,15.10999966
2022-09-15T00:13:01.997Z,15.14999962
2022-09-15T00:14:03.435Z,15.17000008
2022-09-15T00:15:03.283Z,15.14999962
2022-09-15T00:16:06.668Z,15.11999989
2022-09-15T00:18:06.079Z,15.09000015
2022-09-15T00:19:11.607Z,15.06000042
2022-09-15T00:20:14.074Z,15.03999996
2022-09-15T00:21:13.503Z,15.02000046
2022-09-15T00:23:13.061Z,14.97999954
2022-09-15T00:24:16.725Z,14.96000004
2022-09-15T00:25:13.088Z,14.94999981
2022-09-15T00:26:14.089Z,14.93999958
2022-09-15T00:28:13.463Z,14.93999958
2022-09-15T00:29:08.750Z,14.93000031
2022-09-15T00:30:10.301Z,14.93000031
2022-09-15T00:31:08.633Z,14.92000008
2022-09-15T00:32:10.465Z,14.93000031
2022-09-15T00:33:15.448Z,14.90999985
2022-09-15T00:34:19.072Z,14.89000034
2022-09-15T00:35:13.484Z,14.89000034
2022-09-15T00:36:14.079Z,14.89000034
2022-09-15T00:37:20.567Z,14.90999985
2022-09-15T00:38:21.208Z,14.89000034
2022-09-15T00:39:19.160Z,14.85999966
2022-09-15T00:40:17.188Z,14.85000038
2022-09-15T00:41:18.732Z,14.82999992
2022-09-15T00:43:21.299Z,14.81999969
2022-09-15T00:44:20.300Z,14.81000042
2022-09-15T00:46:07.054Z,14.81999969
2022-09-15T00:47:49.649Z,14.93999958
2022-09-15T00:48:46.961Z,14.97999954
2022-09-15T00:49:46.883Z,14.98999977
2022-09-15T00:50:45.940Z,14.97000027
2022-09-15T00:52:44.476Z,14.93999958
2022-09-15T00:53:48.261Z,14.90999985
2022-09-15T00:54:45.065Z,14.89000034
2022-09-15T00:55:45.526Z,14.86999989
2022-09-15T00:57:45.766Z,14.85000038
2022-09-15T00:58:45.246Z,14.81999969
2022-09-15T00:59:42.540Z,14.80000019
2022-09-15T01:00:43.526Z,14.77999973
2022-09-15T01:01:39.099Z,14.77999973
2022-09-15T01:03:40.767Z,14.77000046
2022-09-15T01:04:43.763Z,14.77000046
2022-09-15T01:05:40.794Z,14.80000019
2022-09-15T01:06:40.261Z,14.81999969
2022-09-15T01:08:37.457Z,14.77999973
2022-09-15T01:09:43.920Z,14.76000023
2022-09-15T01:10:46.411Z,14.72999954
2022-09-15T01:12:41.512Z,14.69999981
2022-09-15T01:13:39.057Z,14.68999958
2022-09-15T01:14:38.712Z,14.65999985
2022-09-15T01:15:34.276Z,14.64000034
2022-09-15T01:16:34.493Z,14.63000011
2022-09-15T01:17:38.108Z,14.63000011
2022-09-15T01:18:30.326Z,14.60999966
2022-09-15T01:19:33.692Z,14.59000015
2022-09-15T01:20:37.618Z,14.56999969
2022-09-15T01:21:31.971Z,14.57999992
2022-09-15T01:23:26.990Z,14.56999969
2022-09-15T01:25:13.284Z,14.60999966
2022-09-15T01:25:55.446Z,14.65999985
2022-09-15T01:27:50.435Z,14.68000031
2022-09-15T01:28:48.932Z,14.65999985
2022-09-15T01:29:48.142Z,14.63000011
2022-09-15T01:30:45.676Z,14.60000038
2022-09-15T01:32:41.904Z,14.55000019
2022-09-15T01:33:40.869Z,14.53999996
2022-09-15T01:34:38.181Z,14.51000023
2022-09-15T01:35:40.238Z,14.48999977
2022-09-15T01:36:34.586Z,14.47999954
2022-09-15T01:38:30.413Z,14.47000027
2022-09-15T01:39:33.115Z,14.44999981
2022-09-15T01:40:25.025Z,14.44999981
2022-09-15T01:41:29.791Z,14.43999958
2022-09-15T01:43:32.524Z,14.43000031
2022-09-15T01:44:33.397Z,14.39999962
2022-09-15T01:45:30.178Z,14.39000034
2022-09-15T01:46:32.389Z,14.38000011
2022-09-15T01:47:24.664Z,14.39000034
2022-09-15T01:48:24.336Z,14.39000034
2022-09-15T01:49:19.114Z,14.39000034
2022-09-15T01:50:18.901Z,14.38000011
2022-09-15T01:51:20.564Z,14.36999989
2022-09-15T01:53:23.605Z,14.38000011
2022-09-15T01:54:18.559Z,14.36999989
2022-09-15T01:55:21.780Z,14.36999989
2022-09-15T01:56:13.501Z,14.38000011
2022-09-15T01:58:07.384Z,14.39000034
2022-09-15T01:59:12.398Z,14.38000011
2022-09-15T02:00:05.440Z,14.36999989
2022-09-15T02:01:15.233Z,14.36999989
2022-09-15T02:02:10.466Z,14.36999989
2022-09-15T02:03:11.145Z,14.35000038
2022-09-15T02:04:12.866Z,14.34000015
2022-09-15T02:05:11.573Z,14.32999992
2022-09-15T02:06:14.497Z,14.31000042
2022-09-15T02:07:10.707Z,14.34000015
2022-09-15T02:08:11.232Z,14.31999969
2022-09-15T02:09:10.468Z,14.30000019
2022-09-15T02:10:06.315Z,14.27999973
2022-09-15T02:11:10.881Z,14.26000023
2022-09-15T02:12:03.592Z,14.28999996
2022-09-15T02:13:08.309Z,14.27999973
2022-09-15T02:14:00.306Z,14.27000046
2022-09-15T02:15:02.278Z,14.26000023
2022-09-15T02:15:55.147Z,14.27000046
2022-09-15T02:17:19.934Z,14.28999996
2022-09-15T02:17:59.797Z,14.30000019
2022-09-15T02:18:59.591Z,14.31000042
2022-09-15T02:20:00.937Z,14.31999969
2022-09-15T02:20:57.317Z,14.28999996
2022-09-15T02:22:00.528Z,14.30000019
2022-09-15T02:22:57.480Z,14.27999973
2022-09-15T02:23:57.813Z,14.26000023
2022-09-15T02:24:56.154Z,14.22999954
2022-09-15T02:25:58.450Z,14.22000027
2022-09-15T02:27:01.832Z,14.22999954
2022-09-15T02:28:01.957Z,14.19999981
2022-09-15T02:28:58.361Z,14.19999981
2022-09-15T02:30:01.772Z,14.21000004
2022-09-15T02:30:57.621Z,14.22000027
2022-09-15T02:32:55.035Z,14.23999977
2022-09-15T02:33:57.959Z,14.22999954
2022-09-15T02:34:51.437Z,14.22000027
2022-09-15T02:35:54.897Z,14.22000027
2022-09-15T02:37:52.853Z,14.25
2022-09-15T02:38:47.111Z,14.23999977
2022-09-15T02:39:49.585Z,14.23999977
2022-09-15T02:40:50.914Z,14.22999954
2022-09-15T02:42:50.358Z,14.22000027
2022-09-15T02:43:54.015Z,14.22000027
2022-09-15T02:44:55.930Z,14.19999981
2022-09-15T02:45:53.382Z,14.18999958
2022-09-15T02:46:55.182Z,14.19999981
2022-09-15T02:47:57.851Z,14.18999958
2022-09-15T02:48:55.958Z,14.18000031
2022-09-15T02:49:58.049Z,14.18000031
2022-09-15T02:50:54.044Z,14.18999958
2022-09-15T02:51:58.675Z,14.21000004
2022-09-15T02:53:09.248Z,14.17000008
2022-09-15T02:54:09.395Z,14.15999985
2022-09-15T02:55:13.489Z,14.14000034
2022-09-15T02:56:12.678Z,14.14000034
2022-09-15T02:57:01.452Z,14.14999962
2022-09-15T02:57:42.929Z,14.19999981
2022-09-15T02:58:41.098Z,14.22000027
2022-09-15T02:59:40.974Z,14.23999977
2022-09-15T03:00:42.043Z,14.23999977
2022-09-15T03:01:37.516Z,14.25
2022-09-15T03:02:41.851Z,14.25
2022-09-15T03:03:38.834Z,14.23999977
2022-09-15T03:03:43.048Z,14.23999977
2022-09-15T03:04:42.273Z,14.26000023
2022-09-15T03:05:47.252Z,14.26000023
2022-09-15T03:07:53.110Z,14.26000023
2022-09-15T03:08:50.193Z,14.26000023
2022-09-15T03:09:50.226Z,14.23999977
2022-09-15T03:10:50.478Z,14.22999954
2022-09-15T03:11:52.332Z,14.25
2022-09-15T03:12:48.340Z,14.23999977
2022-09-15T03:13:49.786Z,14.22999954
2022-09-15T03:14:51.526Z,14.22999954
2022-09-15T03:15:52.590Z,14.25
2022-09-15T03:16:49.459Z,14.30000019
2022-09-15T03:17:56.983Z,14.31000042
2022-09-15T03:18:55.048Z,14.30000019
2022-09-15T03:19:55.031Z,14.30000019
2022-09-15T03:20:54.244Z,14.30000019
2022-09-15T03:22:55.613Z,14.31000042
2022-09-15T03:23:53.771Z,14.30000019
2022-09-15T03:24:53.638Z,14.30000019
2022-09-15T03:25:51.328Z,14.31000042
2022-09-15T03:26:51.806Z,14.31999969
2022-09-15T03:27:49.727Z,14.31999969
2022-09-15T03:28:54.299Z,14.32999992
2022-09-15T03:29:50.709Z,14.34000015
2022-09-15T03:30:54.317Z,14.32999992
2022-09-15T03:31:49.606Z,14.36999989
2022-09-15T03:32:50.878Z,14.38000011
2022-09-15T03:33:52.724Z,14.39999962
2022-09-15T03:34:50.088Z,14.39000034
2022-09-15T03:35:54.399Z,14.40999985
2022-09-15T03:37:50.509Z,14.47000027
2022-09-15T03:38:46.771Z,14.47000027
2022-09-15T03:39:50.661Z,14.47000027
2022-09-15T03:42:23.883Z,14.52000046
2022-09-15T03:42:33.380Z,14.65999985
2022-09-15T03:43:36.217Z,14.81999969
2022-09-15T03:44:36.040Z,14.89999962
2022-09-15T03:45:33.009Z,14.89000034
2022-09-15T03:46:35.818Z,14.85999966
2022-09-15T03:47:34.022Z,14.81999969
2022-09-15T03:48:35.756Z,14.77000046
2022-09-15T03:49:37.663Z,14.75
2022-09-15T03:50:41.027Z,14.69999981
2022-09-15T03:51:40.909Z,14.69999981
2022-09-15T03:53:41.531Z,14.67000008
2022-09-15T03:54:39.335Z,14.64999962
2022-09-15T03:55:43.242Z,14.64999962
2022-09-15T03:56:40.352Z,14.64999962
2022-09-15T03:58:41.616Z,14.64000034
2022-09-15T03:59:42.587Z,14.64000034
2022-09-15T04:00:43.054Z,14.61999989
2022-09-15T04:01:44.232Z,14.61999989
2022-09-15T04:02:42.186Z,14.63000011
2022-09-15T04:03:51.097Z,14.64999962
2022-09-15T04:04:54.597Z,14.68999958
2022-09-15T04:05:51.479Z,14.72999954
2022-09-15T04:06:50.781Z,14.75
2022-09-15T04:07:55.049Z,14.72999954
2022-09-15T04:08:52.835Z,14.72999954
2022-09-15T04:09:54.822Z,14.72999954
2022-09-15T04:10:53.450Z,14.71000004
2022-09-15T04:12:57.792Z,14.68999958
2022-09-15T04:14:01.522Z,14.68000031
2022-09-15T04:14:56.237Z,14.67000008
2022-09-15T04:17:04.850Z,14.72000027
2022-09-15T04:17:34.101Z,14.81999969
2022-09-15T04:18:36.101Z,14.92000008
2022-09-15T04:19:38.984Z,14.93000031
2022-09-15T04:20:40.858Z,14.92000008
2022-09-15T04:21:44.696Z,14.89000034
2022-09-15T04:23:45.288Z,14.82999992
2022-09-15T04:24:43.351Z,14.81999969
2022-09-15T04:25:45.092Z,14.80000019
2022-09-15T04:26:43.142Z,14.80000019
2022-09-15T04:28:40.162Z,14.77999973
2022-09-15T04:29:43.671Z,14.78999996
2022-09-15T04:30:42.731Z,14.78999996
2022-09-15T04:31:45.203Z,14.78999996
2022-09-15T04:32:42.312Z,14.80000019
2022-09-15T04:33:43.934Z,14.76000023
2022-09-15T04:34:41.489Z,14.73999977
2022-09-15T04:35:43.653Z,14.72999954
2022-09-15T04:36:44.813Z,14.72999954
2022-09-15T04:38:49.236Z,14.68000031
2022-09-15T04:39:51.764Z,14.67000008
2022-09-15T04:40:47.749Z,14.65999985
2022-09-15T04:41:52.438Z,14.68000031
2022-09-15T04:43:53.194Z,14.73999977
2022-09-15T04:44:49.541Z,14.72999954
2022-09-15T04:45:51.067Z,14.72000027
2022-09-15T04:47:48.798Z,14.72999954
2022-09-15T04:48:51.192Z,14.76000023
2022-09-15T04:49:50.551Z,14.77000046
2022-09-15T04:51:01.363Z,14.80000019
2022-09-15T04:53:05.144Z,14.86999989
2022-09-15T04:53:59.796Z,14.82999992
2022-09-15T04:55:02.261Z,14.82999992
2022-09-15T04:56:03.650Z,14.78999996
2022-09-15T04:58:16.350Z,14.73999977
2022-09-15T04:59:14.600Z,14.72999954
2022-09-15T05:01:21.098Z,14.77000046
2022-09-15T05:01:43.393Z,14.88000011
2022-09-15T05:03:38.965Z,15.02000046
2022-09-15T05:04:49.020Z,15.02000046
2022-09-15T05:05:44.388Z,14.98999977
2022-09-15T05:06:42.767Z,14.97999954
2022-09-15T05:08:37.434Z,14.93000031
2022-09-15T05:09:32.909Z,14.89999962
2022-09-15T05:10:32.526Z,14.86999989
2022-09-15T05:11:28.635Z,14.85999966
2022-09-15T05:13:23.842Z,14.84000015
2022-09-15T05:14:25.803Z,14.81999969
2022-09-15T05:15:21.252Z,14.81999969
2022-09-15T05:16:21.891Z,14.81999969
2022-09-15T05:18:18.781Z,14.81999969
2022-09-15T05:19:14.363Z,14.80000019
2022-09-15T05:20:16.751Z,14.78999996
2022-09-15T05:21:11.017Z,14.80000019
2022-09-15T05:23:04.204Z,14.81999969
2022-09-15T05:24:03.441Z,14.80000019
2022-09-15T05:25:02.440Z,14.80000019
2022-09-15T05:26:10.026Z,14.78999996
2022-09-15T05:28:08.516Z,14.81000042
2022-09-15T05:29:08.976Z,14.81000042
2022-09-15T05:30:32.712Z,14.81000042
2022-09-15T05:30:36.786Z,14.81000042
2022-09-15T05:30:39.758Z,14.81000042
2022-09-15T05:31:08.903Z,14.82999992
2022-09-15T05:33:04.214Z,14.93000031
2022-09-15T05:34:01.339Z,14.92000008
2022-09-15T05:35:01.702Z,14.89999962
2022-09-15T05:35:56.661Z,14.89000034
2022-09-15T05:38:19.649Z,14.86999989
2022-09-15T05:39:00.334Z,14.88000011
2022-09-15T05:40:03.121Z,14.90999985
2022-09-15T05:41:01.543Z,14.92000008
2022-09-15T05:42:59.471Z,14.93999958
2022-09-15T05:43:55.813Z,14.92000008
2022-09-15T05:44:56.522Z,14.89999962
2022-09-15T05:45:56.657Z,14.90999985
2022-09-15T05:47:52.718Z,14.89999962
2022-09-15T05:48:56.598Z,14.88000011
2022-09-15T05:49:50.681Z,14.86999989
2022-09-15T05:50:49.719Z,14.86999989
2022-09-15T05:51:55.714Z,14.89000034
2022-09-15T05:52:54.378Z,14.90999985
2022-09-15T05:53:50.913Z,14.89999962
2022-09-15T05:54:59.248Z,14.89000034
2022-09-15T05:55:58.156Z,14.88000011
2022-09-15T05:57:59.121Z,14.86999989
2022-09-15T05:58:51.694Z,14.86999989
2022-09-15T05:59:56.033Z,14.88000011
2022-09-15T06:00:48.756Z,14.89000034
2022-09-15T06:01:53.310Z,14.90999985
2022-09-15T06:03:52.817Z,14.92000008
2022-09-15T06:04:53.356Z,14.93000031
2022-09-15T06:05:55.117Z,14.90999985
2022-09-15T06:07:56.704Z,14.92000008
2022-09-15T06:08:58.391Z,14.93999958
2022-09-15T06:09:55.901Z,14.93999958
2022-09-15T06:10:55.207Z,14.93999958
2022-09-15T06:12:57.534Z,14.97000027
2022-09-15T06:13:51.883Z,15.01000023
2022-09-15T06:14:55.233Z,15.02000046
2022-09-15T06:15:57.290Z,15.02999973
2022-09-15T06:17:51.749Z,15.06000042
2022-09-15T06:18:51.371Z,15.06999969
2022-09-15T06:19:46.806Z,15.06999969
2022-09-15T06:20:47.171Z,15.06999969
2022-09-15T06:21:45.133Z,15.06999969
2022-09-15T06:23:45.040Z,15.06000042
2022-09-15T06:23:50.776Z,15.06000042
2022-09-15T06:25:37.505Z,15.14999962
2022-09-15T06:26:21.466Z,15.21000004
2022-09-15T06:28:19.001Z,15.23999977
2022-09-15T06:29:16.236Z,15.22999954
2022-09-15T06:30:15.551Z,15.21000004
2022-09-15T06:31:11.807Z,15.19999981
2022-09-15T06:32:10.806Z,15.19999981
2022-09-15T06:33:06.992Z,15.18999958
2022-09-15T06:34:07.155Z,15.18000031
2022-09-15T06:35:03.823Z,15.18000031
2022-09-15T06:36:02.745Z,15.17000008
2022-09-15T06:37:59.602Z,15.17000008
2022-09-15T06:39:01.946Z,15.17000008
2022-09-15T06:39:53.730Z,15.18000031
2022-09-15T06:40:53.388Z,15.21000004
2022-09-15T06:42:01.870Z,15.22999954
2022-09-15T06:42:02.143Z,15.22999954
2022-09-15T06:42:05.904Z,15.22999954
2022-09-15T06:42:47.714Z,15.26000023
2022-09-15T06:43:43.119Z,15.31999969
2022-09-15T06:44:44.370Z,15.34000015
2022-09-15T06:45:38.955Z,15.34000015
2022-09-15T06:46:43.061Z,15.34000015
2022-09-15T06:48:35.950Z,15.34000015
2022-09-15T06:49:39.947Z,15.35999966
2022-09-15T06:50:38.315Z,15.39999962
2022-09-15T06:51:32.612Z,15.40999985
2022-09-15T06:53:31.569Z,15.47000027
2022-09-15T06:54:30.792Z,15.47000027
2022-09-15T06:55:25.383Z,15.46000004
2022-09-15T06:56:27.169Z,15.44999981
2022-09-15T06:58:28.572Z,15.43000031
2022-09-15T06:59:24.027Z,15.43999958
2022-09-15T07:00:23.885Z,15.42000008
2022-09-15T07:01:19.090Z,15.42000008
2022-09-15T07:03:14.455Z,15.43000031
2022-09-15T07:04:14.157Z,15.42000008
2022-09-15T07:05:11.986Z,15.40999985
2022-09-15T07:06:06.750Z,15.40999985
2022-09-15T07:08:00.747Z,15.43000031
2022-09-15T07:09:05.527Z,15.43000031
2022-09-15T07:09:57.809Z,15.43999958
2022-09-15T07:10:59.201Z,15.43999958
2022-09-15T07:11:51.119Z,15.46000004
2022-09-15T07:12:52.359Z,15.46000004
2022-09-15T07:13:47.919Z,15.44999981
2022-09-15T07:15:33.571Z,15.5
2022-09-15T07:16:16.982Z,15.52999973
2022-09-15T07:17:17.116Z,15.57999992
2022-09-15T07:18:18.821Z,15.56999969
2022-09-15T07:19:15.128Z,15.55000019
2022-09-15T07:20:18.042Z,15.53999996
2022-09-15T07:21:14.474Z,15.52000046
2022-09-15T07:25:40.657Z,16.03000069
2022-09-15T07:26:20.525Z,16.11000061
2022-09-15T07:27:18.796Z,16.12000084
2022-09-15T07:28:20.551Z,16.07999992
2022-09-15T07:29:15.776Z,16.01000023
2022-09-15T07:30:15.900Z,15.96000004
2022-09-15T07:31:11.229Z,15.92000008
2022-09-15T07:33:10.721Z,15.84000015
2022-09-15T07:34:10.679Z,15.81000042
2022-09-15T07:35:06.879Z,15.78999996
2022-09-15T07:36:08.740Z,15.77999973
2022-09-15T07:38:03.133Z,15.77999973
2022-09-15T07:38:56.039Z,15.77999973
2022-09-15T07:39:56.622Z,15.78999996
2022-09-15T07:40:51.768Z,15.77999973
2022-09-15T07:41:50.723Z,15.77000046
2022-09-15T07:43:47.004Z,15.80000019
2022-09-15T07:44:47.819Z,15.77999973
2022-09-15T07:45:44.104Z,15.77000046
2022-09-15T07:46:46.123Z,15.77999973
2022-09-15T07:47:42.509Z,15.78999996
2022-09-15T07:48:41.697Z,15.77999973
2022-09-15T07:49:40.729Z,15.78999996
2022-09-15T07:50:43.527Z,15.77999973
2022-09-15T07:51:35.479Z,15.80000019
2022-09-15T07:53:37.670Z,15.81999969
2022-09-15T07:54:30.483Z,15.84000015
2022-09-15T07:55:32.831Z,15.85000038
2022-09-15T07:56:29.976Z,15.85999966
2022-09-15T07:57:30.028Z,15.88000011
2022-09-15T07:58:26.020Z,15.88000011
2022-09-15T07:59:23.148Z,15.86999989
2022-09-15T08:00:25.375Z,15.85999966
2022-09-15T08:01:17.697Z,15.86999989
2022-09-15T08:03:11.993Z,15.90999985
2022-09-15T08:04:11.696Z,15.93000031
2022-09-15T08:05:57.147Z,15.98999977
2022-09-15T08:06:39.855Z,16.04999924
2022-09-15T08:08:43.469Z,16.10000038
2022-09-15T08:09:39.869Z,16.10000038
2022-09-15T08:10:38.999Z,16.09000015
2022-09-15T08:11:40.069Z,16.07999992
2022-09-15T08:13:39.194Z,16.05999947
2022-09-15T08:14:38.338Z,16.04999924
2022-09-15T08:15:39.735Z,16.05999947
2022-09-15T08:16:37.976Z,16.04999924
2022-09-15T08:17:38.800Z,16.04999924
2022-09-15T08:18:36.786Z,16.05999947
2022-09-15T08:19:37.030Z,16.04999924
2022-09-15T08:20:35.055Z,16.07999992
2022-09-15T08:21:38.819Z,16.09000015
2022-09-15T08:23:39.317Z,16.11000061
2022-09-15T08:24:33.752Z,16.12000084
2022-09-15T08:25:34.504Z,16.12999916
2022-09-15T08:26:31.094Z,16.12999916
2022-09-15T08:27:32.174Z,16.13999939
2022-09-15T08:28:28.577Z,16.12999916
2022-09-15T08:29:28.262Z,16.12999916
2022-09-15T08:30:29.720Z,16.12999916
2022-09-15T08:31:26.710Z,16.12999916
2022-09-15T08:33:26.801Z,16.13999939
2022-09-15T08:34:23.338Z,16.13999939
2022-09-15T08:35:28.560Z,16.14999962
2022-09-15T08:36:22.880Z,16.17000008
2022-09-15T08:38:22.332Z,16.21999931
2022-09-15T08:39:25.227Z,16.22999954
2022-09-15T08:40:20.528Z,16.23999977
2022-09-15T08:41:25.726Z,16.25
2022-09-15T08:42:20.983Z,16.28000069
2022-09-15T08:43:22.242Z,16.28000069
2022-09-15T08:44:19.133Z,16.30999947
2022-09-15T08:46:03.475Z,16.36000061
2022-09-15T08:46:43.790Z,16.43000031
2022-09-15T08:48:38.703Z,16.48999977
2022-09-15T08:49:50.965Z,16.48999977
2022-09-15T08:49:51.611Z,16.48999977
2022-09-15T08:50:36.667Z,16.52000046
2022-09-15T08:51:31.598Z,16.54999924
2022-09-15T08:52:29.734Z,16.54999924
2022-09-15T08:53:28.159Z,16.52000046
2022-09-15T08:54:24.996Z,16.51000023
2022-09-15T08:55:24.676Z,16.47999954
2022-09-15T08:56:20.850Z,16.45000076
2022-09-15T08:58:15.469Z,16.44000053
2022-09-15T08:59:17.938Z,16.43000031
2022-09-15T09:00:11.314Z,16.43000031
2022-09-15T09:01:09.862Z,16.43000031
2022-09-15T09:02:08.302Z,16.43000031
2022-09-15T09:03:04.016Z,16.43000031
2022-09-15T09:04:05.941Z,16.42000008
2022-09-15T09:04:58.291Z,16.43000031
2022-09-15T09:05:56.510Z,16.45000076
2022-09-15T09:06:55.108Z,16.44000053
2022-09-15T09:07:50.383Z,16.46999931
2022-09-15T09:08:52.996Z,16.46999931
2022-09-15T09:09:45.091Z,16.47999954
2022-09-15T09:10:43.744Z,16.5
2022-09-15T09:11:41.594Z,16.52000046
2022-09-15T09:13:35.706Z,16.55999947
2022-09-15T09:14:34.821Z,16.57999992
2022-09-15T09:15:29.915Z,16.59000015
2022-09-15T09:16:33.016Z,16.61000061
2022-09-15T09:18:17.033Z,16.69000053
2022-09-15T09:18:56.733Z,16.73999977
2022-09-15T09:19:21.259Z,16.77000046
2022-09-15T09:20:20.805Z,16.79000092
2022-09-15T09:21:15.313Z,16.79999924
2022-09-15T09:22:14.578Z,16.79000092
2022-09-15T09:23:09.505Z,16.76000023
2022-09-15T09:24:09.195Z,16.73999977
2022-09-15T09:25:21.114Z,16.73999977
2022-09-15T09:25:26.099Z,16.73999977
2022-09-15T09:25:26.792Z,16.73999977
2022-09-15T09:26:08.640Z,16.73999977
2022-09-15T09:26:10.608Z,16.73999977
2022-09-15T09:27:57.095Z,16.85000038
2022-09-15T09:28:56.505Z,16.85000038
2022-09-15T09:29:52.817Z,16.84000015
2022-09-15T09:30:52.770Z,16.82999992
2022-09-15T09:31:47.975Z,16.80999947
2022-09-15T09:33:47.818Z,16.79999924
2022-09-15T09:34:44.521Z,16.79999924
2022-09-15T09:35:39.090Z,16.79999924
2022-09-15T09:36:38.469Z,16.79999924
2022-09-15T09:38:33.338Z,16.79999924
2022-09-15T09:39:28.500Z,16.78000069
2022-09-15T09:40:27.353Z,16.79000092
2022-09-15T09:41:21.689Z,16.78000069
2022-09-15T09:42:20.488Z,16.79999924
2022-09-15T09:43:22.134Z,16.81999969
2022-09-15T09:44:14.444Z,16.82999992
2022-09-15T09:45:14.011Z,16.81999969
2022-09-15T09:46:09.283Z,16.79999924
2022-09-15T09:47:08.417Z,16.79000092
2022-09-15T09:48:03.600Z,16.78000069
2022-09-15T09:49:05.520Z,16.75
2022-09-15T09:49:58.130Z,16.73999977
2022-09-15T09:51:00.397Z,16.73999977
2022-09-15T09:51:52.758Z,16.72999954
2022-09-15T09:52:55.073Z,16.72999954
2022-09-15T09:53:48.460Z,16.71999931
2022-09-15T09:54:50.119Z,16.72999954
2022-09-15T09:55:42.658Z,16.72999954
2022-09-15T09:56:44.129Z,16.71999931
2022-09-15T09:57:40.678Z,16.73999977
2022-09-15T09:58:37.892Z,16.72999954
2022-09-15T09:59:32.409Z,16.72999954
2022-09-15T10:00:31.088Z,16.70999908
2022-09-15T10:01:28.872Z,16.70999908
2022-09-15T10:03:21.073Z,16.70000076
2022-09-15T10:04:22.092Z,16.69000053
2022-09-15T10:05:58.657Z,16.73999977
2022-09-15T10:06:38.236Z,16.79999924
2022-09-15T10:07:35.217Z,16.82999992
2022-09-15T10:08:35.146Z,16.81999969
2022-09-15T10:09:33.244Z,16.80999947
2022-09-15T10:10:32.707Z,16.79999924
2022-09-15T10:11:29.426Z,16.80999947
2022-09-15T10:12:29.329Z,16.79000092
2022-09-15T10:13:24.898Z,16.77000046
2022-09-15T10:14:24.033Z,16.73999977
2022-09-15T10:15:19.312Z,16.71999931
2022-09-15T10:16:18.534Z,16.71999931
2022-09-15T10:17:13.905Z,16.71999931
2022-09-15T10:18:15.630Z,16.70999908
2022-09-15T10:19:08.180Z,16.71999931
2022-09-15T10:20:07.565Z,16.70000076
2022-09-15T10:21:02.970Z,16.70999908
2022-09-15T10:22:01.887Z,16.70999908
2022-09-15T10:22:57.046Z,16.70999908
2022-09-15T10:23:56.682Z,16.70999908
2022-09-15T10:24:52.429Z,16.70999908
2022-09-15T10:25:59.913Z,16.70999908
2022-09-15T10:26:00.311Z,16.70999908
2022-09-15T10:26:49.795Z,16.73999977
2022-09-15T10:27:44.526Z,16.79999924
2022-09-15T10:28:44.214Z,16.80999947
2022-09-15T10:29:40.510Z,16.81999969
2022-09-15T10:30:41.520Z,16.81999969
2022-09-15T10:31:34.517Z,16.82999992
2022-09-15T10:32:33.572Z,16.85000038
2022-09-15T10:33:28.750Z,16.85000038
2022-09-15T10:34:29.044Z,16.86000061
2022-09-15T10:35:25.413Z,16.87999916
2022-09-15T10:36:24.853Z,16.88999939
2022-09-15T10:37:19.498Z,16.90999985
2022-09-15T10:38:18.973Z,16.90999985
2022-09-15T10:39:16.653Z,16.90999985
2022-09-15T10:40:11.521Z,16.93000031
2022-09-15T10:41:12.114Z,16.95000076
2022-09-15T10:42:07.529Z,16.98999977
2022-09-15T10:43:04.892Z,17.02000046
2022-09-15T10:44:08.446Z,17.01000023
2022-09-15T10:45:05.102Z,17
2022-09-15T10:46:04.669Z,16.98999977
2022-09-15T10:46:59.482Z,16.96999931
2022-09-15T10:48:01.115Z,16.96999931
2022-09-15T10:49:23.799Z,16.96999931
2022-09-15T10:50:05.493Z,16.97999954
2022-09-15T10:51:04.656Z,17.01000023
2022-09-15T10:52:04.595Z,17
2022-09-15T10:53:59.146Z,16.96999931
2022-09-15T10:54:59.043Z,16.96999931
2022-09-15T10:55:54.325Z,16.94000053
2022-09-15T10:56:51.698Z,16.93000031
2022-09-15T10:58:47.058Z,16.88999939
2022-09-15T10:59:44.400Z,16.87000084
2022-09-15T11:00:44.245Z,16.85000038
2022-09-15T11:01:43.504Z,16.85000038
2022-09-15T11:03:39.357Z,16.82999992
2022-09-15T11:04:39.539Z,16.82999992
2022-09-15T11:05:36.523Z,16.81999969
2022-09-15T11:06:38.961Z,16.79999924
2022-09-15T11:07:34.246Z,16.79000092
2022-09-15T11:08:37.348Z,16.77000046
2022-09-15T11:09:30.678Z,16.75
2022-09-15T11:10:35.626Z,16.73999977
2022-09-15T11:11:32.489Z,16.73999977
2022-09-15T11:12:36.375Z,16.70999908
2022-09-15T11:13:31.672Z,16.69000053
2022-09-15T11:14:36.744Z,16.69000053
2022-09-15T11:15:31.404Z,16.69000053
2022-09-15T11:16:32.781Z,16.68000031
2022-09-15T11:17:32.663Z,16.65999985
2022-09-15T11:18:29.816Z,16.61000061
2022-09-15T11:19:30.263Z,16.57999992
2022-09-15T11:20:26.608Z,16.53000069
2022-09-15T11:21:29.106Z,16.47999954
2022-09-15T11:23:25.322Z,16.38999939
2022-09-15T11:24:20.541Z,16.29999924
2022-09-15T11:25:19.966Z,16.27000046
2022-09-15T11:26:17.950Z,16.20999908
2022-09-15T11:27:25.995Z,16.20999908
2022-09-15T11:28:25.415Z,16.15999985
2022-09-15T11:29:55.537Z,16.12000084
2022-09-15T11:30:34.943Z,16.14999962
2022-09-15T11:31:33.842Z,16.18000031
2022-09-15T11:33:30.159Z,16.14999962
2022-09-15T11:34:29.237Z,16.12999916
2022-09-15T11:35:25.715Z,16.11000061
2022-09-15T11:36:27.442Z,16.07999992
2022-09-15T11:38:25.601Z,16.04999924
2022-09-15T11:39:20.878Z,16.04000092
2022-09-15T11:40:24.946Z,16
2022-09-15T11:41:19.452Z,16
2022-09-15T11:42:18.956Z,16.01000023
2022-09-15T11:43:13.680Z,16.02000046
2022-09-15T11:44:16.018Z,16.01000023
2022-09-15T11:44:17.034Z,16.01000023
2022-09-15T11:45:11.475Z,16.01000023
2022-09-15T11:46:07.767Z,16.03000069
2022-09-15T11:47:07.808Z,16.04000092
2022-09-15T11:48:09.366Z,16.03000069
2022-09-15T11:49:02.423Z,16.04999924
2022-09-15T11:50:02.184Z,16.04000092
2022-09-15T11:50:57.522Z,16.05999947
2022-09-15T11:51:57.646Z,16.05999947
2022-09-15T11:53:54.282Z,16.06999969
2022-09-15T11:54:55.121Z,16.06999969
2022-09-15T11:55:55.855Z,16.07999992
2022-09-15T11:56:52.327Z,16.10000038
2022-09-15T11:58:48.582Z,16.14999962
2022-09-15T11:59:42.442Z,16.15999985